sensor_id;sensor_type;location;lat;lon;timestamp;pressure;altitude;pressure_sealevel;temperature;humidity
55576;BME280;41437;45.478;9.116;2023-02-22T00:02:37;100101.47;;;10.37;100.00
55576;BME280;41437;45.478;9.116;2023-02-22T00:05:39;100093.78;;;10.39;100.00
55576;BME280;41437;45.478;9.116;2023-02-22T00:08:46;100095.97;;;10.37;100.00
55576;BME280;41437;45.478;9.116;2023-02-22T00:11:52;100091.22;;;10.32;100.00
55576;BME280;41437;45.478;9.116;2023-02-22T00:14:53;100092.22;;;10.26;100.00
55576;BME280;41437;45.478;9.116;2023-02-22T00:17:58;100090.69;;;10.18;100.00
55576;BME280;41437;45.478;9.116;2023-02-22T00:21:00;100087.44;;;10.21;100.00
55576;BME280;41437;45.478;9.116;2023-02-22T00:24:05;100084.28;;;10.13;100.00
55576;BME280;41437;45.478;9.116;2023-02-22T00:27:23;100091.78;;;10.00;100.00
55576;BME280;41437;45.478;9.116;2023-02-22T00:30:27;100086.19;;;9.95;100.00
55576;BME280;41437;45.478;9.116;2023-02-22T00:33:29;100081.53;;;9.96;100.00
55576;BME280;41437;45.478;9.116;2023-02-22T00:36:30;100087.28;;;9.94;100.00
55576;BME280;41437;45.478;9.116;2023-02-22T00:39:32;100074.63;;;9.93;100.00
55576;BME280;41437;45.478;9.116;2023-02-22T00:42:37;100073.19;;;10.07;100.00
55576;BME280;41437;45.478;9.116;2023-02-22T00:45:39;100083.28;;;10.19;100.00
55576;BME280;41437;45.478;9.116;2023-02-22T00:48:40;100083.84;;;10.21;100.00
55576;BME280;41437;45.478;9.116;2023-02-22T00:51:43;100079.34;;;10.31;100.00
55576;BME280;41437;45.478;9.116;2023-02-22T00:54:44;100083.53;;;10.34;100.00
55576;BME280;41437;45.478;9.116;2023-02-22T00:57:47;100076.09;;;10.35;100.00
55576;BME280;41437;45.478;9.116;2023-02-22T01:00:50;100076.59;;;10.31;100.00
55576;BME280;41437;45.478;9.116;2023-02-22T01:03:51;100074.16;;;10.35;100.00
55576;BME280;41437;45.478;9.116;2023-02-22T01:06:53;100075.09;;;10.24;100.00
55576;BME280;41437;45.478;9.116;2023-02-22T01:09:54;100077.59;;;10.25;100.00
55576;BME280;41437;45.478;9.116;2023-02-22T01:12:59;100064.50;;;10.32;100.00
55576;BME280;41437;45.478;9.116;2023-02-22T01:16:01;100065.84;;;10.30;100.00
55576;BME280;41437;45.478;9.116;2023-02-22T01:19:05;100070.91;;;10.38;100.00
55576;BME280;41437;45.478;9.116;2023-02-22T01:22:07;100069.19;;;10.15;100.00
55576;BME280;41437;45.478;9.116;2023-02-22T01:25:09;100067.75;;;9.96;100.00
55576;BME280;41437;45.478;9.116;2023-02-22T01:28:13;100060.44;;;10.01;100.00
55576;BME280;41437;45.478;9.116;2023-02-22T01:31:14;100065.75;;;10.08;100.00
55576;BME280;41437;45.478;9.116;2023-02-22T01:34:16;100066.84;;;10.07;100.00
55576;BME280;41437;45.478;9.116;2023-02-22T01:37:18;100054.06;;;10.01;100.00
55576;BME280;41437;45.478;9.116;2023-02-22T01:40:22;100048.09;;;9.87;100.00
55576;BME280;41437;45.478;9.116;2023-02-22T01:43:26;100048.69;;;9.89;100.00
55576;BME280;41437;45.478;9.116;2023-02-22T01:46:28;100049.66;;;10.00;100.00
55576;BME280;41437;45.478;9.116;2023-02-22T01:49:32;100046.75;;;9.90;100.00
55576;BME280;41437;45.478;9.116;2023-02-22T01:52:36;100051.50;;;9.94;100.00
55576;BME280;41437;45.478;9.116;2023-02-22T01:55:38;100037.91;;;9.88;100.00
55576;BME280;41437;45.478;9.116;2023-02-22T01:58:44;100038.94;;;9.81;100.00
55576;BME280;41437;45.478;9.116;2023-02-22T02:01:47;100042.78;;;9.80;100.00
55576;BME280;41437;45.478;9.116;2023-02-22T02:04:50;100030.66;;;9.81;100.00
55576;BME280;41437;45.478;9.116;2023-02-22T02:07:53;100032.59;;;9.81;100.00
55576;BME280;41437;45.478;9.116;2023-02-22T02:10:55;100037.59;;;9.84;100.00
55576;BME280;41437;45.478;9.116;2023-02-22T02:13:59;100032.16;;;9.89;100.00
55576;BME280;41437;45.478;9.116;2023-02-22T02:17:01;100029.75;;;9.93;100.00
55576;BME280;41437;45.478;9.116;2023-02-22T02:20:09;100036.38;;;9.97;100.00
55576;BME280;41437;45.478;9.116;2023-02-22T02:23:37;100030.16;;;10.01;100.00
55576;BME280;41437;45.478;9.116;2023-02-22T02:27:01;100028.53;;;10.05;100.00
55576;BME280;41437;45.478;9.116;2023-02-22T02:30:34;100031.28;;;10.05;100.00
55576;BME280;41437;45.478;9.116;2023-02-22T02:33:42;100034.38;;;10.09;100.00
55576;BME280;41437;45.478;9.116;2023-02-22T02:36:53;100030.88;;;10.14;100.00
55576;BME280;41437;45.478;9.116;2023-02-22T02:39:59;100032.03;;;10.18;100.00
55576;BME280;41437;45.478;9.116;2023-02-22T02:43:08;100020.44;;;10.16;100.00
55576;BME280;41437;45.478;9.116;2023-02-22T02:46:18;100021.22;;;10.11;100.00
55576;BME280;41437;45.478;9.116;2023-02-22T02:49:27;100014.88;;;10.11;100.00
55576;BME280;41437;45.478;9.116;2023-02-22T02:52:32;100014.94;;;10.16;100.00
55576;BME280;41437;45.478;9.116;2023-02-22T02:55:38;100006.84;;;10.09;100.00
55576;BME280;41437;45.478;9.116;2023-02-22T02:58:46;100006.03;;;10.08;100.00
55576;BME280;41437;45.478;9.116;2023-02-22T03:01:56;100002.50;;;10.13;100.00
55576;BME280;41437;45.478;9.116;2023-02-22T03:05:14;99993.47;;;10.18;100.00
55576;BME280;41437;45.478;9.116;2023-02-22T03:08:25;99995.47;;;10.22;100.00
55576;BME280;41437;45.478;9.116;2023-02-22T03:11:37;99993.47;;;10.18;100.00
55576;BME280;41437;45.478;9.116;2023-02-22T03:14:53;99998.97;;;10.18;100.00
55576;BME280;41437;45.478;9.116;2023-02-22T03:18:03;99998.16;;;10.17;100.00
55576;BME280;41437;45.478;9.116;2023-02-22T03:21:12;99986.38;;;10.22;100.00
55576;BME280;41437;45.478;9.116;2023-02-22T03:24:21;99994.50;;;10.12;100.00
55576;BME280;41437;45.478;9.116;2023-02-22T03:27:27;99995.50;;;10.05;100.00
55576;BME280;41437;45.478;9.116;2023-02-22T03:30:36;99998.94;;;9.96;100.00
55576;BME280;41437;45.478;9.116;2023-02-22T03:33:40;99994.13;;;9.86;100.00
55576;BME280;41437;45.478;9.116;2023-02-22T03:36:47;99991.38;;;9.86;100.00
55576;BME280;41437;45.478;9.116;2023-02-22T03:39:59;99997.38;;;9.83;100.00
55576;BME280;41437;45.478;9.116;2023-02-22T03:43:06;99999.91;;;9.85;100.00
55576;BME280;41437;45.478;9.116;2023-02-22T03:46:08;99996.97;;;9.91;100.00
55576;BME280;41437;45.478;9.116;2023-02-22T03:49:15;99996.88;;;9.86;100.00
55576;BME280;41437;45.478;9.116;2023-02-22T03:52:21;99991.31;;;9.81;100.00
55576;BME280;41437;45.478;9.116;2023-02-22T03:55:23;99988.72;;;9.74;100.00
55576;BME280;41437;45.478;9.116;2023-02-22T03:58:30;99990.91;;;9.72;100.00
55576;BME280;41437;45.478;9.116;2023-02-22T04:01:33;99991.59;;;9.63;100.00
55576;BME280;41437;45.478;9.116;2023-02-22T04:04:35;99993.25;;;9.64;100.00
55576;BME280;41437;45.478;9.116;2023-02-22T04:07:38;99992.09;;;9.60;100.00
55576;BME280;41437;45.478;9.116;2023-02-22T04:10:39;99990.00;;;9.67;100.00
55576;BME280;41437;45.478;9.116;2023-02-22T04:13:41;99997.31;;;9.61;100.00
55576;BME280;41437;45.478;9.116;2023-02-22T04:16:42;99998.50;;;9.65;100.00
55576;BME280;41437;45.478;9.116;2023-02-22T04:19:44;99997.31;;;9.61;100.00
55576;BME280;41437;45.478;9.116;2023-02-22T04:22:47;99997.91;;;9.63;100.00
55576;BME280;41437;45.478;9.116;2023-02-22T04:25:48;99996.56;;;9.66;100.00
55576;BME280;41437;45.478;9.116;2023-02-22T04:28:50;99994.34;;;9.63;100.00
55576;BME280;41437;45.478;9.116;2023-02-22T04:31:51;99998.25;;;9.67;100.00
55576;BME280;41437;45.478;9.116;2023-02-22T04:34:53;99997.91;;;9.63;100.00
55576;BME280;41437;45.478;9.116;2023-02-22T04:37:56;99992.22;;;9.53;100.00
55576;BME280;41437;45.478;9.116;2023-02-22T04:40:58;99998.59;;;9.53;100.00
55576;BME280;41437;45.478;9.116;2023-02-22T04:43:59;99996.69;;;9.54;100.00
55576;BME280;41437;45.478;9.116;2023-02-22T04:47:01;99995.25;;;9.51;100.00
55576;BME280;41437;45.478;9.116;2023-02-22T04:50:05;99993.59;;;9.50;100.00
55576;BME280;41437;45.478;9.116;2023-02-22T04:53:08;99996.81;;;9.47;100.00
55576;BME280;41437;45.478;9.116;2023-02-22T04:56:10;99995.91;;;9.42;100.00
55576;BME280;41437;45.478;9.116;2023-02-22T04:59:11;99991.25;;;9.42;100.00
55576;BME280;41437;45.478;9.116;2023-02-22T05:02:13;99996.06;;;9.35;100.00
55576;BME280;41437;45.478;9.116;2023-02-22T05:05:18;99993.09;;;9.37;100.00
55576;BME280;41437;45.478;9.116;2023-02-22T05:08:22;99986.16;;;9.34;100.00
55576;BME280;41437;45.478;9.116;2023-02-22T05:11:24;99995.56;;;9.38;100.00
55576;BME280;41437;45.478;9.116;2023-02-22T05:14:25;99992.81;;;9.38;100.00
55576;BME280;41437;45.478;9.116;2023-02-22T05:17:27;100004.50;;;9.28;100.00
55576;BME280;41437;45.478;9.116;2023-02-22T05:20:31;99984.22;;;9.18;100.00
55576;BME280;41437;45.478;9.116;2023-02-22T05:23:34;100005.72;;;9.21;100.00
55576;BME280;41437;45.478;9.116;2023-02-22T05:26:36;100002.97;;;9.21;100.00
55576;BME280;41437;45.478;9.116;2023-02-22T05:29:37;100006.63;;;9.26;100.00
55576;BME280;41437;45.478;9.116;2023-02-22T05:32:39;100000.22;;;9.21;100.00
55576;BME280;41437;45.478;9.116;2023-02-22T05:35:41;100005.16;;;9.19;100.00
55576;BME280;41437;45.478;9.116;2023-02-22T05:38:44;100005.03;;;9.14;100.00
55576;BME280;41437;45.478;9.116;2023-02-22T05:41:45;100002.06;;;9.15;100.00
55576;BME280;41437;45.478;9.116;2023-02-22T05:44:47;99989.41;;;9.14;100.00
55576;BME280;41437;45.478;9.116;2023-02-22T05:47:49;99994.66;;;9.16;100.00
55576;BME280;41437;45.478;9.116;2023-02-22T05:50:50;99995.72;;;9.15;100.00
55576;BME280;41437;45.478;9.116;2023-02-22T05:53:53;100001.41;;;9.25;100.00
55576;BME280;41437;45.478;9.116;2023-02-22T05:56:55;100006.56;;;9.21;100.00
55576;BME280;41437;45.478;9.116;2023-02-22T05:59:56;100006.56;;;9.21;100.00
55576;BME280;41437;45.478;9.116;2023-02-22T06:03:00;99990.53;;;9.18;100.00
55576;BME280;41437;45.478;9.116;2023-02-22T06:06:01;99997.13;;;9.17;100.00
55576;BME280;41437;45.478;9.116;2023-02-22T06:09:05;100006.81;;;9.20;100.00
55576;BME280;41437;45.478;9.116;2023-02-22T06:12:07;100007.91;;;9.19;100.00
55576;BME280;41437;45.478;9.116;2023-02-22T06:15:09;100005.25;;;9.24;100.00
55576;BME280;41437;45.478;9.116;2023-02-22T06:18:11;100001.97;;;9.27;100.00
55576;BME280;41437;45.478;9.116;2023-02-22T06:21:13;100007.91;;;9.19;100.00
55576;BME280;41437;45.478;9.116;2023-02-22T06:24:18;100005.47;;;9.22;100.00
55576;BME280;41437;45.478;9.116;2023-02-22T06:27:20;100009.56;;;9.20;100.00
55576;BME280;41437;45.478;9.116;2023-02-22T06:30:23;100008.72;;;9.19;100.00
55576;BME280;41437;45.478;9.116;2023-02-22T06:33:24;100010.88;;;9.17;100.00
55576;BME280;41437;45.478;9.116;2023-02-22T06:36:26;100005.38;;;9.17;100.00
55576;BME280;41437;45.478;9.116;2023-02-22T06:39:29;100012.81;;;9.17;100.00
55576;BME280;41437;45.478;9.116;2023-02-22T06:42:30;100019.38;;;9.16;100.00
55576;BME280;41437;45.478;9.116;2023-02-22T06:45:32;100017.56;;;9.21;100.00
55576;BME280;41437;45.478;9.116;2023-02-22T06:48:35;100015.97;;;9.25;100.00
55576;BME280;41437;45.478;9.116;2023-02-22T06:51:37;100022.66;;;9.29;100.00
55576;BME280;41437;45.478;9.116;2023-02-22T06:54:40;100024.91;;;9.32;100.00
55576;BME280;41437;45.478;9.116;2023-02-22T06:57:42;100022.72;;;9.35;100.00
55576;BME280;41437;45.478;9.116;2023-02-22T07:00:44;100029.06;;;9.35;100.00
55576;BME280;41437;45.478;9.116;2023-02-22T07:03:47;100031.06;;;9.40;100.00
55576;BME280;41437;45.478;9.116;2023-02-22T07:06:49;100029.84;;;9.47;100.00
55576;BME280;41437;45.478;9.116;2023-02-22T07:09:52;100031.66;;;9.42;100.00
55576;BME280;41437;45.478;9.116;2023-02-22T07:12:54;100032.06;;;9.34;100.00
55576;BME280;41437;45.478;9.116;2023-02-22T07:15:55;100033.59;;;9.41;100.00
55576;BME280;41437;45.478;9.116;2023-02-22T07:18:57;100040.84;;;9.47;100.00
55576;BME280;41437;45.478;9.116;2023-02-22T07:22:02;100038.56;;;9.44;100.00
55576;BME280;41437;45.478;9.116;2023-02-22T07:25:10;100034.56;;;9.35;100.00
55576;BME280;41437;45.478;9.116;2023-02-22T07:28:11;100037.22;;;9.30;100.00
55576;BME280;41437;45.478;9.116;2023-02-22T07:31:14;100030.56;;;9.26;100.00
55576;BME280;41437;45.478;9.116;2023-02-22T07:34:19;100034.22;;;9.31;100.00
55576;BME280;41437;45.478;9.116;2023-02-22T07:37:22;100036.91;;;9.43;100.00
55576;BME280;41437;45.478;9.116;2023-02-22T07:40:26;100034.59;;;9.52;100.00
55576;BME280;41437;45.478;9.116;2023-02-22T07:43:28;100034.00;;;9.50;100.00
55576;BME280;41437;45.478;9.116;2023-02-22T07:46:30;100032.09;;;9.50;100.00
55576;BME280;41437;45.478;9.116;2023-02-22T07:49:33;100033.41;;;9.48;100.00
55576;BME280;41437;45.478;9.116;2023-02-22T07:52:34;100029.41;;;9.55;100.00
55576;BME280;41437;45.478;9.116;2023-02-22T07:55:40;100033.50;;;9.53;100.00
55576;BME280;41437;45.478;9.116;2023-02-22T07:58:41;100023.44;;;9.59;100.00
55576;BME280;41437;45.478;9.116;2023-02-22T08:01:43;100020.16;;;9.62;100.00
55576;BME280;41437;45.478;9.116;2023-02-22T08:04:44;100028.41;;;9.62;100.00
55576;BME280;41437;45.478;9.116;2023-02-22T08:07:46;100030.09;;;9.46;100.00
55576;BME280;41437;45.478;9.116;2023-02-22T08:10:49;100019.84;;;9.41;100.00
55576;BME280;41437;45.478;9.116;2023-02-22T08:13:51;100028.09;;;9.41;100.00
55576;BME280;41437;45.478;9.116;2023-02-22T08:16:55;100023.66;;;9.57;100.00
55576;BME280;41437;45.478;9.116;2023-02-22T08:19:56;100025.59;;;9.56;100.00
55576;BME280;41437;45.478;9.116;2023-02-22T08:23:00;100018.69;;;9.54;100.00
55576;BME280;41437;45.478;9.116;2023-02-22T08:26:06;100028.59;;;9.55;100.00
55576;BME280;41437;45.478;9.116;2023-02-22T08:29:07;100020.41;;;9.60;100.00
55576;BME280;41437;45.478;9.116;2023-02-22T08:32:09;100020.16;;;9.62;100.00
55576;BME280;41437;45.478;9.116;2023-02-22T08:35:11;100028.53;;;9.67;100.00
55576;BME280;41437;45.478;9.116;2023-02-22T08:38:18;100031.28;;;9.67;100.00
55576;BME280;41437;45.478;9.116;2023-02-22T08:41:21;100019.75;;;9.70;100.00
55576;BME280;41437;45.478;9.116;2023-02-22T08:44:23;100025.25;;;9.70;100.00
55576;BME280;41437;45.478;9.116;2023-02-22T08:47:24;100030.19;;;9.68;100.00
55576;BME280;41437;45.478;9.116;2023-02-22T08:50:27;100024.41;;;9.69;100.00
55576;BME280;41437;45.478;9.116;2023-02-22T08:53:29;100022.25;;;9.71;100.00
55576;BME280;41437;45.478;9.116;2023-02-22T08:56:33;100017.66;;;9.77;100.00
55576;BME280;41437;45.478;9.116;2023-02-22T08:59:34;100018.06;;;9.86;100.00
55576;BME280;41437;45.478;9.116;2023-02-22T09:02:39;100023.84;;;9.84;100.00
55576;BME280;41437;45.478;9.116;2023-02-22T09:05:40;100013.41;;;9.86;100.00
55576;BME280;41437;45.478;9.116;2023-02-22T09:08:42;100007.81;;;9.81;100.00
55576;BME280;41437;45.478;9.116;2023-02-22T09:11:45;100018.75;;;9.76;100.00
55576;BME280;41437;45.478;9.116;2023-02-22T09:14:47;100015.06;;;9.87;100.00
55576;BME280;41437;45.478;9.116;2023-02-22T09:17:48;100015.13;;;9.92;100.00
55576;BME280;41437;45.478;9.116;2023-02-22T09:20:50;100015.06;;;9.87;100.00
55576;BME280;41437;45.478;9.116;2023-02-22T09:23:52;100023.38;;;9.92;100.00
55576;BME280;41437;45.478;9.116;2023-02-22T09:26:55;100017.88;;;9.92;100.00
55576;BME280;41437;45.478;9.116;2023-02-22T09:29:59;100013.66;;;10.01;100.00
55576;BME280;41437;45.478;9.116;2023-02-22T09:33:03;100013.72;;;10.06;100.00
55576;BME280;41437;45.478;9.116;2023-02-22T09:36:06;100017.28;;;10.07;100.00
55576;BME280;41437;45.478;9.116;2023-02-22T09:39:08;100012.69;;;10.13;100.00
55576;BME280;41437;45.478;9.116;2023-02-22T09:42:15;100018.53;;;10.16;100.00
55576;BME280;41437;45.478;9.116;2023-02-22T09:45:22;100015.38;;;10.24;100.00
55576;BME280;41437;45.478;9.116;2023-02-22T09:48:24;100010.00;;;10.18;100.00
55576;BME280;41437;45.478;9.116;2023-02-22T09:51:28;100004.91;;;10.26;100.00
55576;BME280;41437;45.478;9.116;2023-02-22T09:54:38;100007.06;;;10.41;100.00
55576;BME280;41437;45.478;9.116;2023-02-22T09:57:44;100000.13;;;10.39;100.00
55576;BME280;41437;45.478;9.116;2023-02-22T10:00:47;100013.13;;;10.43;100.00
55576;BME280;41437;45.478;9.116;2023-02-22T10:03:59;100002.44;;;10.47;100.00
55576;BME280;41437;45.478;9.116;2023-02-22T10:07:09;99997.25;;;10.50;100.00
55576;BME280;41437;45.478;9.116;2023-02-22T10:10:16;99991.97;;;10.49;100.00
55576;BME280;41437;45.478;9.116;2023-02-22T10:13:26;99992.06;;;10.54;100.00
55576;BME280;41437;45.478;9.116;2023-02-22T10:16:32;99987.31;;;10.71;100.00
55576;BME280;41437;45.478;9.116;2023-02-22T10:19:40;99992.88;;;10.76;100.00
55576;BME280;41437;45.478;9.116;2023-02-22T10:22:56;99985.22;;;10.83;100.00
55576;BME280;41437;45.478;9.116;2023-02-22T10:26:05;99981.28;;;11.01;100.00
55576;BME280;41437;45.478;9.116;2023-02-22T10:29:17;99980.44;;;11.01;100.00
55576;BME280;41437;45.478;9.116;2023-02-22T10:32:25;99988.16;;;10.99;100.00
55576;BME280;41437;45.478;9.116;2023-02-22T10:35:32;99986.19;;;10.94;100.00
55576;BME280;41437;45.478;9.116;2023-02-22T10:38:35;99978.47;;;11.23;100.00
55576;BME280;41437;45.478;9.116;2023-02-22T10:41:43;99975.16;;;12.43;100.00
55576;BME280;41437;45.478;9.116;2023-02-22T10:44:48;99981.47;;;13.27;100.00
55576;BME280;41437;45.478;9.116;2023-02-22T10:47:50;99981.47;;;13.83;97.86
55576;BME280;41437;45.478;9.116;2023-02-22T10:50:58;99985.94;;;13.33;95.53
55576;BME280;41437;45.478;9.116;2023-02-22T10:54:17;99984.38;;;12.79;97.49
55576;BME280;41437;45.478;9.116;2023-02-22T10:57:23;99979.81;;;12.32;100.00
55576;BME280;41437;45.478;9.116;2023-02-22T11:00:30;99972.81;;;12.15;100.00
55576;BME280;41437;45.478;9.116;2023-02-22T11:03:32;99971.78;;;11.83;100.00
55576;BME280;41437;45.478;9.116;2023-02-22T11:06:35;99966.78;;;11.80;100.00
55576;BME280;41437;45.478;9.116;2023-02-22T11:09:48;99961.47;;;11.74;100.00
55576;BME280;41437;45.478;9.116;2023-02-22T11:12:50;99960.94;;;11.77;100.00
55576;BME280;41437;45.478;9.116;2023-02-22T11:15:57;99956.56;;;11.81;100.00
55576;BME280;41437;45.478;9.116;2023-02-22T11:19:01;99957.03;;;11.68;100.00
55576;BME280;41437;45.478;9.116;2023-02-22T11:22:10;99948.41;;;11.59;100.00
55576;BME280;41437;45.478;9.116;2023-02-22T11:25:19;99941.78;;;11.60;100.00
55576;BME280;41437;45.478;9.116;2023-02-22T11:28:26;99941.00;;;11.65;100.00
55576;BME280;41437;45.478;9.116;2023-02-22T11:31:40;99927.31;;;11.80;100.00
55576;BME280;41437;45.478;9.116;2023-02-22T11:34:43;99924.63;;;11.90;100.00
55576;BME280;41437;45.478;9.116;2023-02-22T11:37:44;99919.16;;;12.05;100.00
55576;BME280;41437;45.478;9.116;2023-02-22T11:41:03;99915.16;;;12.28;100.00
55576;BME280;41437;45.478;9.116;2023-02-22T11:44:19;99920.41;;;12.40;100.00
55576;BME280;41437;45.478;9.116;2023-02-22T11:47:23;99915.47;;;12.47;100.00
55576;BME280;41437;45.478;9.116;2023-02-22T11:50:30;99913.81;;;12.46;99.29
55576;BME280;41437;45.478;9.116;2023-02-22T11:53:48;99905.53;;;12.41;100.00
55576;BME280;41437;45.478;9.116;2023-02-22T11:57:02;99908.59;;;12.50;98.08
55576;BME280;41437;45.478;9.116;2023-02-22T12:00:16;99901.13;;;12.45;97.83
55576;BME280;41437;45.478;9.116;2023-02-22T12:03:36;99901.13;;;12.61;98.14
55576;BME280;41437;45.478;9.116;2023-02-22T12:06:45;99898.66;;;12.59;97.24
55576;BME280;41437;45.478;9.116;2023-02-22T12:09:57;99891.19;;;12.70;96.54
55576;BME280;41437;45.478;9.116;2023-02-22T12:13:23;99895.09;;;12.74;96.10
55576;BME280;41437;45.478;9.116;2023-02-22T12:16:33;99887.38;;;12.81;95.94
55576;BME280;41437;45.478;9.116;2023-02-22T12:19:45;99882.41;;;12.93;95.79
55576;BME280;41437;45.478;9.116;2023-02-22T12:22:55;99886.25;;;12.92;95.41
55576;BME280;41437;45.478;9.116;2023-02-22T12:26:01;99877.97;;;12.82;96.54
55576;BME280;41437;45.478;9.116;2023-02-22T12:29:10;99872.69;;;12.75;96.33
55576;BME280;41437;45.478;9.116;2023-02-22T12:32:16;99876.84;;;12.68;95.59
55576;BME280;41437;45.478;9.116;2023-02-22T12:35:26;99873.50;;;12.61;96.31
55576;BME280;41437;45.478;9.116;2023-02-22T12:38:30;99866.59;;;12.63;94.55
55576;BME280;41437;45.478;9.116;2023-02-22T12:41:41;99872.97;;;12.69;95.52
55576;BME280;41437;45.478;9.116;2023-02-22T12:44:50;99863.59;;;12.90;93.54
55576;BME280;41437;45.478;9.116;2023-02-22T12:47:59;99858.06;;;12.90;94.00
55576;BME280;41437;45.478;9.116;2023-02-22T12:51:16;99861.38;;;13.02;94.49
55576;BME280;41437;45.478;9.116;2023-02-22T12:54:22;99856.94;;;13.12;92.64
55576;BME280;41437;45.478;9.116;2023-02-22T12:57:33;99854.44;;;13.05;91.70
55576;BME280;41437;45.478;9.116;2023-02-22T13:00:41;99853.34;;;12.86;93.11
55576;BME280;41437;45.478;9.116;2023-02-22T13:03:43;99850.31;;;12.92;92.02
55576;BME280;41437;45.478;9.116;2023-02-22T13:06:58;99843.41;;;12.95;90.70
55576;BME280;41437;45.478;9.116;2023-02-22T13:10:28;99830.41;;;12.80;90.67
55576;BME280;41437;45.478;9.116;2023-02-22T13:13:36;99833.69;;;12.67;92.94
55576;BME280;41437;45.478;9.116;2023-02-22T13:16:44;99830.38;;;12.60;94.33
55576;BME280;41437;45.478;9.116;2023-02-22T13:19:54;99834.25;;;12.69;91.68
55576;BME280;41437;45.478;9.116;2023-02-22T13:23:02;99819.91;;;12.77;92.44
55576;BME280;41437;45.478;9.116;2023-02-22T13:26:14;99823.19;;;12.79;92.73
55576;BME280;41437;45.478;9.116;2023-02-22T13:29:22;99824.31;;;12.98;91.14
55576;BME280;41437;45.478;9.116;2023-02-22T13:32:39;99821.00;;;13.12;90.11
55576;BME280;41437;45.478;9.116;2023-02-22T13:36:00;99817.66;;;13.15;88.11
55576;BME280;41437;45.478;9.116;2023-02-22T13:39:22;99817.66;;;13.30;87.35
55576;BME280;41437;45.478;9.116;2023-02-22T13:42:42;99812.44;;;13.28;85.42
55576;BME280;41437;45.478;9.116;2023-02-22T13:46:16;99814.38;;;13.28;85.70
55576;BME280;41437;45.478;9.116;2023-02-22T13:52:44;99803.28;;;12.92;86.64
55576;BME280;41437;45.478;9.116;2023-02-22T13:55:53;99811.88;;;12.86;87.38
55576;BME280;41437;45.478;9.116;2023-02-22T13:58:58;99805.53;;;12.85;87.80
55576;BME280;41437;45.478;9.116;2023-02-22T14:02:02;99798.59;;;12.82;88.58
55576;BME280;41437;45.478;9.116;2023-02-22T14:08:50;99803.84;;;12.84;88.85
55576;BME280;41437;45.478;9.116;2023-02-22T14:11:53;99795.00;;;12.92;87.83
55576;BME280;41437;45.478;9.116;2023-02-22T14:15:14;99790.00;;;12.84;88.78
55576;BME280;41437;45.478;9.116;2023-02-22T14:18:16;99792.25;;;12.82;89.56
55576;BME280;41437;45.478;9.116;2023-02-22T14:21:19;99785.88;;;12.76;88.98
55576;BME280;41437;45.478;9.116;2023-02-22T14:24:21;99781.44;;;12.75;89.67
55576;BME280;41437;45.478;9.116;2023-02-22T14:27:38;99783.69;;;12.89;89.45
55576;BME280;41437;45.478;9.116;2023-02-22T14:30:39;99776.19;;;12.94;88.83
55576;BME280;41437;45.478;9.116;2023-02-22T14:34:00;99778.69;;;12.91;89.30
55576;BME280;41437;45.478;9.116;2023-02-22T14:37:08;99775.94;;;12.80;88.49
55576;BME280;41437;45.478;9.116;2023-02-22T14:40:18;99777.88;;;12.65;88.00
55576;BME280;41437;45.478;9.116;2023-02-22T14:43:26;99781.44;;;12.65;90.46
55576;BME280;41437;45.478;9.116;2023-02-22T14:46:31;99780.59;;;12.49;90.29
55576;BME280;41437;45.478;9.116;2023-02-22T14:49:37;99784.47;;;12.38;90.24
55576;BME280;41437;45.478;9.116;2023-02-22T14:52:41;99776.72;;;12.30;90.66
55576;BME280;41437;45.478;9.116;2023-02-22T14:55:49;99775.06;;;12.24;91.17
55576;BME280;41437;45.478;9.116;2023-02-22T14:59:01;99775.03;;;12.08;92.04
55576;BME280;41437;45.478;9.116;2023-02-22T15:02:12;99770.03;;;12.00;93.89
55576;BME280;41437;45.478;9.116;2023-02-22T15:05:15;99767.53;;;11.94;94.34
55576;BME280;41437;45.478;9.116;2023-02-22T15:08:18;99772.22;;;11.93;94.94
55576;BME280;41437;45.478;9.116;2023-02-22T15:11:30;99772.56;;;12.12;95.08
55576;BME280;41437;45.478;9.116;2023-02-22T15:14:34;99768.16;;;12.26;95.34
55576;BME280;41437;45.478;9.116;2023-02-22T15:17:37;99770.13;;;12.41;95.13
55576;BME280;41437;45.478;9.116;2023-02-22T15:20:39;99770.38;;;12.45;94.21
55576;BME280;41437;45.478;9.116;2023-02-22T15:23:43;99767.06;;;12.48;93.46
55576;BME280;41437;45.478;9.116;2023-02-22T15:26:45;99766.78;;;12.44;93.44
55576;BME280;41437;45.478;9.116;2023-02-22T15:29:56;99758.78;;;12.38;92.72
55576;BME280;41437;45.478;9.116;2023-02-22T15:33:11;99763.44;;;12.22;94.27
55576;BME280;41437;45.478;9.116;2023-02-22T15:36:14;99759.56;;;12.07;95.48
55576;BME280;41437;45.478;9.116;2023-02-22T15:39:17;99764.50;;;11.95;95.94
55576;BME280;41437;45.478;9.116;2023-02-22T15:42:19;99765.34;;;12.01;96.53
55576;BME280;41437;45.478;9.116;2023-02-22T15:45:24;99761.19;;;11.93;97.53
55576;BME280;41437;45.478;9.116;2023-02-22T15:48:27;99762.00;;;11.94;97.10
55576;BME280;41437;45.478;9.116;2023-02-22T15:51:32;99768.09;;;11.96;98.28
55576;BME280;41437;45.478;9.116;2023-02-22T15:54:39;99762.25;;;11.92;96.83
55576;BME280;41437;45.478;9.116;2023-02-22T15:57:42;99765.84;;;11.93;97.27
55576;BME280;41437;45.478;9.116;2023-02-22T16:00:59;99754.16;;;11.65;98.62
55576;BME280;41437;45.478;9.116;2023-02-22T16:04:01;99758.31;;;11.73;98.03
55576;BME280;41437;45.478;9.116;2023-02-22T16:07:06;99758.84;;;11.70;98.59
55576;BME280;41437;45.478;9.116;2023-02-22T16:10:25;99760.50;;;11.71;98.58
55576;BME280;41437;45.478;9.116;2023-02-22T16:13:28;99755.81;;;11.66;100.00
55576;BME280;41437;45.478;9.116;2023-02-22T16:16:34;99748.94;;;11.79;97.93
55576;BME280;41437;45.478;9.116;2023-02-22T16:19:37;99750.59;;;11.75;99.02
55576;BME280;41437;45.478;9.116;2023-02-22T16:22:40;99754.44;;;11.69;99.08